sensor_id;sensor_type;location;lat;lon;timestamp;P1;durP1;ratioP1;P2;durP2;ratioP2
33786;SDS011;29742;51.540;9.358;2022-08-18T00:02:50;11.95;;;8.43;;
33786;SDS011;29742;51.540;9.358;2022-08-18T00:07:51;13.20;;;8.88;;
33786;SDS011;29742;51.540;9.358;2022-08-18T00:12:52;13.85;;;9.55;;
33786;SDS011;29742;51.540;9.358;2022-08-18T00:17:53;15.80;;;9.93;;
33786;SDS011;29742;51.540;9.358;2022-08-18T00:22:54;14.45;;;9.20;;
33786;SDS011;29742;51.540;9.358;2022-08-18T00:27:56;12.55;;;9.80;;
33786;SDS011;29742;51.540;9.358;2022-08-18T00:32:58;13.40;;;10.45;;
33786;SDS011;29742;51.540;9.358;2022-08-18T00:38:01;13.63;;;9.65;;
33786;SDS011;29742;51.540;9.358;2022-08-18T00:43:03;15.10;;;10.00;;
33786;SDS011;29742;51.540;9.358;2022-08-18T00:48:05;17.55;;;11.43;;
33786;SDS011;29742;51.540;9.358;2022-08-18T00:53:19;16.60;;;11.00;;
33786;SDS011;29742;51.540;9.358;2022-08-18T00:58:24;17.10;;;10.75;;
33786;SDS011;29742;51.540;9.358;2022-08-18T01:03:27;13.95;;;10.90;;
33786;SDS011;29742;51.540;9.358;2022-08-18T01:08:28;21.65;;;10.73;;
33786;SDS011;29742;51.540;9.358;2022-08-18T01:13:30;16.60;;;11.23;;
33786;SDS011;29742;51.540;9.358;2022-08-18T01:18:32;13.95;;;10.60;;
33786;SDS011;29742;51.540;9.358;2022-08-18T01:23:52;16.85;;;10.88;;
33786;SDS011;29742;51.540;9.358;2022-08-18T01:28:53;16.23;;;11.48;;
33786;SDS011;29742;51.540;9.358;2022-08-18T01:33:54;16.70;;;12.20;;
33786;SDS011;29742;51.540;9.358;2022-08-18T01:38:56;20.45;;;12.10;;
33786;SDS011;29742;51.540;9.358;2022-08-18T01:43:57;19.10;;;12.48;;
33786;SDS011;29742;51.540;9.358;2022-08-18T01:48:59;17.75;;;12.20;;
33786;SDS011;29742;51.540;9.358;2022-08-18T01:54:00;21.40;;;12.65;;
33786;SDS011;29742;51.540;9.358;2022-08-18T01:59:02;16.75;;;13.15;;
33786;SDS011;29742;51.540;9.358;2022-08-18T02:04:05;21.50;;;13.33;;
33786;SDS011;29742;51.540;9.358;2022-08-18T02:09:06;28.58;;;16.80;;
33786;SDS011;29742;51.540;9.358;2022-08-18T02:14:07;20.23;;;14.68;;
33786;SDS011;29742;51.540;9.358;2022-08-18T02:19:08;20.38;;;15.13;;
33786;SDS011;29742;51.540;9.358;2022-08-18T02:24:09;18.35;;;15.02;;
33786;SDS011;29742;51.540;9.358;2022-08-18T02:29:10;20.73;;;14.95;;
33786;SDS011;29742;51.540;9.358;2022-08-18T02:34:11;27.88;;;18.77;;
33786;SDS011;29742;51.540;9.358;2022-08-18T02:39:12;26.65;;;16.83;;
33786;SDS011;29742;51.540;9.358;2022-08-18T02:44:13;21.33;;;17.17;;
33786;SDS011;29742;51.540;9.358;2022-08-18T02:49:14;23.17;;;17.00;;
33786;SDS011;29742;51.540;9.358;2022-08-18T02:54:15;22.20;;;17.35;;
33786;SDS011;29742;51.540;9.358;2022-08-18T02:59:17;24.02;;;16.45;;
33786;SDS011;29742;51.540;9.358;2022-08-18T03:04:20;23.08;;;17.25;;
33786;SDS011;29742;51.540;9.358;2022-08-18T03:09:22;25.73;;;17.20;;
33786;SDS011;29742;51.540;9.358;2022-08-18T03:14:23;28.35;;;19.10;;
33786;SDS011;29742;51.540;9.358;2022-08-18T03:19:25;24.52;;;17.60;;
33786;SDS011;29742;51.540;9.358;2022-08-18T03:24:27;29.75;;;19.27;;
33786;SDS011;29742;51.540;9.358;2022-08-18T03:29:28;24.88;;;17.77;;
33786;SDS011;29742;51.540;9.358;2022-08-18T03:34:29;27.80;;;18.30;;
33786;SDS011;29742;51.540;9.358;2022-08-18T03:39:31;29.15;;;19.27;;
33786;SDS011;29742;51.540;9.358;2022-08-18T03:44:32;25.80;;;19.65;;
33786;SDS011;29742;51.540;9.358;2022-08-18T03:49:35;28.10;;;20.53;;
33786;SDS011;29742;51.540;9.358;2022-08-18T03:54:36;34.88;;;21.88;;
33786;SDS011;29742;51.540;9.358;2022-08-18T03:59:38;30.05;;;20.73;;
33786;SDS011;29742;51.540;9.358;2022-08-18T04:04:40;32.85;;;22.00;;
33786;SDS011;29742;51.540;9.358;2022-08-18T04:09:41;32.80;;;20.20;;
33786;SDS011;29742;51.540;9.358;2022-08-18T04:14:43;30.05;;;19.40;;
33786;SDS011;29742;51.540;9.358;2022-08-18T04:19:46;29.37;;;21.03;;
33786;SDS011;29742;51.540;9.358;2022-08-18T04:24:47;32.97;;;21.83;;
33786;SDS011;29742;51.540;9.358;2022-08-18T04:29:49;30.75;;;20.83;;
33786;SDS011;29742;51.540;9.358;2022-08-18T04:34:50;32.47;;;22.27;;
33786;SDS011;29742;51.540;9.358;2022-08-18T04:39:51;35.50;;;22.80;;
33786;SDS011;29742;51.540;9.358;2022-08-18T04:44:52;35.30;;;23.30;;
33786;SDS011;29742;51.540;9.358;2022-08-18T04:49:53;32.20;;;22.48;;
33786;SDS011;29742;51.540;9.358;2022-08-18T04:54:54;39.63;;;25.08;;
33786;SDS011;29742;51.540;9.358;2022-08-18T04:59:55;36.70;;;23.23;;
33786;SDS011;29742;51.540;9.358;2022-08-18T05:04:57;37.63;;;25.30;;
33786;SDS011;29742;51.540;9.358;2022-08-18T05:09:58;40.90;;;26.40;;
33786;SDS011;29742;51.540;9.358;2022-08-18T05:14:59;37.38;;;26.20;;
33786;SDS011;29742;51.540;9.358;2022-08-18T05:20:00;41.47;;;28.05;;
33786;SDS011;29742;51.540;9.358;2022-08-18T05:25:02;40.85;;;26.98;;
33786;SDS011;29742;51.540;9.358;2022-08-18T05:30:04;37.33;;;24.38;;
33786;SDS011;29742;51.540;9.358;2022-08-18T05:35:07;42.35;;;25.05;;
33786;SDS011;29742;51.540;9.358;2022-08-18T05:40:12;42.25;;;27.95;;
33786;SDS011;29742;51.540;9.358;2022-08-18T05:45:15;42.63;;;26.90;;
33786;SDS011;29742;51.540;9.358;2022-08-18T05:50:17;41.80;;;28.10;;
33786;SDS011;29742;51.540;9.358;2022-08-18T05:55:22;41.53;;;28.08;;
33786;SDS011;29742;51.540;9.358;2022-08-18T06:00:44;35.20;;;25.83;;
33786;SDS011;29742;51.540;9.358;2022-08-18T06:05:52;44.03;;;29.25;;
33786;SDS011;29742;51.540;9.358;2022-08-18T06:10:56;42.60;;;28.52;;
33786;SDS011;29742;51.540;9.358;2022-08-18T06:15:59;43.90;;;27.23;;
33786;SDS011;29742;51.540;9.358;2022-08-18T06:26:33;41.90;;;29.33;;
33786;SDS011;29742;51.540;9.358;2022-08-18T06:31:58;47.13;;;31.42;;
33786;SDS011;29742;51.540;9.358;2022-08-18T06:37:10;49.17;;;31.85;;
33786;SDS011;29742;51.540;9.358;2022-08-18T06:42:14;51.90;;;34.83;;
33786;SDS011;29742;51.540;9.358;2022-08-18T06:52:37;58.53;;;38.13;;
33786;SDS011;29742;51.540;9.358;2022-08-18T06:57:51;58.17;;;38.97;;
33786;SDS011;29742;51.540;9.358;2022-08-18T07:03:05;57.15;;;36.28;;
33786;SDS011;29742;51.540;9.358;2022-08-18T07:08:17;53.08;;;36.15;;
33786;SDS011;29742;51.540;9.358;2022-08-18T07:18:25;62.72;;;38.65;;
33786;SDS011;29742;51.540;9.358;2022-08-18T07:28:37;92.32;;;52.40;;
33786;SDS011;29742;51.540;9.358;2022-08-18T07:33:39;95.90;;;50.33;;
33786;SDS011;29742;51.540;9.358;2022-08-18T07:38:47;86.55;;;47.85;;
33786;SDS011;29742;51.540;9.358;2022-08-18T07:43:52;83.63;;;47.53;;
33786;SDS011;29742;51.540;9.358;2022-08-18T07:48:56;96.03;;;55.08;;
33786;SDS011;29742;51.540;9.358;2022-08-18T07:53:59;101.93;;;58.70;;
33786;SDS011;29742;51.540;9.358;2022-08-18T07:59:02;97.05;;;56.15;;
33786;SDS011;29742;51.540;9.358;2022-08-18T08:04:10;97.18;;;55.90;;
33786;SDS011;29742;51.540;9.358;2022-08-18T08:09:19;105.22;;;58.75;;
33786;SDS011;29742;51.540;9.358;2022-08-18T08:24:30;97.65;;;50.45;;
33786;SDS011;29742;51.540;9.358;2022-08-18T08:29:42;86.30;;;45.95;;
33786;SDS011;29742;51.540;9.358;2022-08-18T08:34:48;83.03;;;43.10;;
33786;SDS011;29742;51.540;9.358;2022-08-18T08:39:51;74.07;;;39.03;;
33786;SDS011;29742;51.540;9.358;2022-08-18T08:44:57;67.50;;;38.22;;
33786;SDS011;29742;51.540;9.358;2022-08-18T08:50:35;66.15;;;36.80;;
33786;SDS011;29742;51.540;9.358;2022-08-18T08:55:32;55.50;;;34.20;;
33786;SDS011;29742;51.540;9.358;2022-08-18T09:00:34;60.83;;;35.33;;
33786;SDS011;29742;51.540;9.358;2022-08-18T09:05:42;60.88;;;35.90;;
33786;SDS011;29742;51.540;9.358;2022-08-18T09:31:42;66.70;;;36.95;;
33786;SDS011;29742;51.540;9.358;2022-08-18T09:36:58;63.63;;;36.63;;
33786;SDS011;29742;51.540;9.358;2022-08-18T09:42:02;71.70;;;39.15;;
33786;SDS011;29742;51.540;9.358;2022-08-18T09:47:06;75.50;;;42.15;;
33786;SDS011;29742;51.540;9.358;2022-08-18T09:57:22;57.60;;;35.10;;
33786;SDS011;29742;51.540;9.358;2022-08-18T10:18:24;50.45;;;29.85;;
33786;SDS011;29742;51.540;9.358;2022-08-18T10:28:51;48.17;;;28.08;;
33786;SDS011;29742;51.540;9.358;2022-08-18T10:38:56;48.30;;;27.95;;
33786;SDS011;29742;51.540;9.358;2022-08-18T10:43:58;51.75;;;28.38;;
33786;SDS011;29742;51.540;9.358;2022-08-18T10:54:29;41.58;;;25.05;;
33786;SDS011;29742;51.540;9.358;2022-08-18T10:59:39;44.28;;;24.38;;
33786;SDS011;29742;51.540;9.358;2022-08-18T11:04:42;49.50;;;27.92;;
33786;SDS011;29742;51.540;9.358;2022-08-18T11:09:46;41.65;;;25.70;;
33786;SDS011;29742;51.540;9.358;2022-08-18T11:15:11;40.33;;;24.80;;
33786;SDS011;29742;51.540;9.358;2022-08-18T11:20:16;41.70;;;25.50;;
33786;SDS011;29742;51.540;9.358;2022-08-18T11:25:19;31.05;;;21.08;;
33786;SDS011;29742;51.540;9.358;2022-08-18T11:30:22;37.97;;;23.77;;
33786;SDS011;29742;51.540;9.358;2022-08-18T11:35:32;44.72;;;24.40;;
33786;SDS011;29742;51.540;9.358;2022-08-18T11:40:36;30.92;;;20.80;;
33786;SDS011;29742;51.540;9.358;2022-08-18T11:55:49;30.90;;;18.80;;
33786;SDS011;29742;51.540;9.358;2022-08-18T12:01:02;26.10;;;18.58;;
33786;SDS011;29742;51.540;9.358;2022-08-18T12:06:10;27.35;;;18.27;;
33786;SDS011;29742;51.540;9.358;2022-08-18T12:11:16;29.42;;;18.80;;
33786;SDS011;29742;51.540;9.358;2022-08-18T12:16:32;30.02;;;18.02;;
33786;SDS011;29742;51.540;9.358;2022-08-18T12:21:41;30.83;;;19.40;;
33786;SDS011;29742;51.540;9.358;2022-08-18T12:26:42;28.02;;;18.35;;
33786;SDS011;29742;51.540;9.358;2022-08-18T12:31:44;31.40;;;19.90;;
33786;SDS011;29742;51.540;9.358;2022-08-18T12:36:45;25.25;;;17.35;;
33786;SDS011;29742;51.540;9.358;2022-08-18T12:41:46;27.80;;;17.58;;
33786;SDS011;29742;51.540;9.358;2022-08-18T12:46:47;24.73;;;16.95;;
33786;SDS011;29742;51.540;9.358;2022-08-18T12:51:49;28.63;;;17.58;;
33786;SDS011;29742;51.540;9.358;2022-08-18T12:56:50;24.75;;;16.48;;
33786;SDS011;29742;51.540;9.358;2022-08-18T13:01:53;24.65;;;16.75;;
33786;SDS011;29742;51.540;9.358;2022-08-18T13:06:55;26.80;;;17.08;;
33786;SDS011;29742;51.540;9.358;2022-08-18T13:11:56;23.83;;;16.08;;
33786;SDS011;29742;51.540;9.358;2022-08-18T13:16:57;25.33;;;16.67;;
33786;SDS011;29742;51.540;9.358;2022-08-18T13:21:58;21.27;;;15.80;;
33786;SDS011;29742;51.540;9.358;2022-08-18T13:27:01;23.17;;;15.63;;
33786;SDS011;29742;51.540;9.358;2022-08-18T13:32:02;26.90;;;15.18;;
33786;SDS011;29742;51.540;9.358;2022-08-18T13:37:07;29.73;;;16.60;;
33786;SDS011;29742;51.540;9.358;2022-08-18T13:42:08;30.48;;;17.27;;
33786;SDS011;29742;51.540;9.358;2022-08-18T13:47:09;26.95;;;16.42;;
33786;SDS011;29742;51.540;9.358;2022-08-18T13:52:10;25.73;;;16.67;;
33786;SDS011;29742;51.540;9.358;2022-08-18T13:57:12;33.97;;;18.65;;
33786;SDS011;29742;51.540;9.358;2022-08-18T14:02:13;34.47;;;18.77;;
33786;SDS011;29742;51.540;9.358;2022-08-18T14:07:14;25.08;;;17.00;;
33786;SDS011;29742;51.540;9.358;2022-08-18T14:12:20;26.40;;;17.75;;
33786;SDS011;29742;51.540;9.358;2022-08-18T14:17:23;29.92;;;18.45;;
33786;SDS011;29742;51.540;9.358;2022-08-18T14:22:24;27.23;;;18.05;;
33786;SDS011;29742;51.540;9.358;2022-08-18T14:27:44;26.05;;;17.27;;
33786;SDS011;29742;51.540;9.358;2022-08-18T14:32:45;26.13;;;16.67;;
33786;SDS011;29742;51.540;9.358;2022-08-18T14:37:46;31.38;;;19.27;;
33786;SDS011;29742;51.540;9.358;2022-08-18T14:42:47;26.20;;;16.52;;
33786;SDS011;29742;51.540;9.358;2022-08-18T14:47:48;29.33;;;17.55;;
33786;SDS011;29742;51.540;9.358;2022-08-18T14:52:53;22.90;;;16.08;;
33786;SDS011;29742;51.540;9.358;2022-08-18T14:57:54;22.10;;;16.33;;
33786;SDS011;29742;51.540;9.358;2022-08-18T15:02:55;27.90;;;17.10;;
33786;SDS011;29742;51.540;9.358;2022-08-18T15:07:56;21.90;;;15.63;;
33786;SDS011;29742;51.540;9.358;2022-08-18T15:12:57;22.98;;;15.25;;
33786;SDS011;29742;51.540;9.358;2022-08-18T15:17:59;20.45;;;14.57;;
33786;SDS011;29742;51.540;9.358;2022-08-18T15:23:00;21.95;;;14.55;;
33786;SDS011;29742;51.540;9.358;2022-08-18T15:28:21;22.00;;;15.80;;
33786;SDS011;29742;51.540;9.358;2022-08-18T15:33:23;22.88;;;15.40;;
33786;SDS011;29742;51.540;9.358;2022-08-18T15:38:25;26.20;;;15.63;;
33786;SDS011;29742;51.540;9.358;2022-08-18T15:43:27;23.92;;;16.23;;
33786;SDS011;29742;51.540;9.358;2022-08-18T15:48:30;23.13;;;16.00;;
33786;SDS011;29742;51.540;9.358;2022-08-18T15:53:31;22.80;;;15.48;;
33786;SDS011;29742;51.540;9.358;2022-08-18T15:58:32;23.52;;;15.15;;
33786;SDS011;29742;51.540;9.358;2022-08-18T16:03:33;20.90;;;14.75;;
33786;SDS011;29742;51.540;9.358;2022-08-18T16:08:36;20.52;;;15.07;;
33786;SDS011;29742;51.540;9.358;2022-08-18T16:13:37;19.58;;;13.98;;
33786;SDS011;29742;51.540;9.358;2022-08-18T16:18:39;21.85;;;15.00;;
33786;SDS011;29742;51.540;9.358;2022-08-18T16:23:41;21.40;;;14.15;;
33786;SDS011;29742;51.540;9.358;2022-08-18T16:28:44;19.13;;;13.95;;
33786;SDS011;29742;51.540;9.358;2022-08-18T16:33:45;23.33;;;14.50;;
33786;SDS011;29742;51.540;9.358;2022-08-18T16:38:46;19.27;;;13.98;;
33786;SDS011;29742;51.540;9.358;2022-08-18T16:43:47;20.02;;;14.55;;
33786;SDS011;29742;51.540;9.358;2022-08-18T16:48:50;19.77;;;12.75;;
33786;SDS011;29742;51.540;9.358;2022-08-18T16:53:51;18.98;;;14.40;;
33786;SDS011;29742;51.540;9.358;2022-08-18T16:58:53;18.67;;;13.15;;
33786;SDS011;29742;51.540;9.358;2022-08-18T17:04:14;20.27;;;13.85;;
33786;SDS011;29742;51.540;9.358;2022-08-18T17:09:17;20.20;;;12.95;;
33786;SDS011;29742;51.540;9.358;2022-08-18T17:14:22;17.70;;;13.15;;
33786;SDS011;29742;51.540;9.358;2022-08-18T17:19:25;19.60;;;13.48;;
33786;SDS011;29742;51.540;9.358;2022-08-18T17:24:26;19.58;;;13.35;;
33786;SDS011;29742;51.540;9.358;2022-08-18T17:29:30;19.13;;;12.45;;
33786;SDS011;29742;51.540;9.358;2022-08-18T17:34:33;18.85;;;12.32;;
33786;SDS011;29742;51.540;9.358;2022-08-18T17:39:39;22.17;;;12.93;;
33786;SDS011;29742;51.540;9.358;2022-08-18T17:44:43;26.25;;;13.13;;
33786;SDS011;29742;51.540;9.358;2022-08-18T17:49:44;18.30;;;12.80;;
33786;SDS011;29742;51.540;9.358;2022-08-18T17:55:08;20.05;;;14.55;;
33786;SDS011;29742;51.540;9.358;2022-08-18T18:00:14;23.35;;;15.32;;
33786;SDS011;29742;51.540;9.358;2022-08-18T18:05:17;26.80;;;16.80;;
33786;SDS011;29742;51.540;9.358;2022-08-18T18:15:45;29.80;;;17.92;;
33786;SDS011;29742;51.540;9.358;2022-08-18T18:20:55;30.67;;;19.33;;
33786;SDS011;29742;51.540;9.358;2022-08-18T18:25:56;28.40;;;19.23;;
33786;SDS011;29742;51.540;9.358;2022-08-18T18:30:59;35.75;;;21.42;;
33786;SDS011;29742;51.540;9.358;2022-08-18T18:36:17;27.85;;;19.50;;
33786;SDS011;29742;51.540;9.358;2022-08-18T18:41:30;31.33;;;20.23;;
33786;SDS011;29742;51.540;9.358;2022-08-18T18:51:42;24.02;;;16.98;;
33786;SDS011;29742;51.540;9.358;2022-08-18T18:56:48;26.75;;;17.15;;
33786;SDS011;29742;51.540;9.358;2022-08-18T19:02:13;23.58;;;16.42;;
33786;SDS011;29742;51.540;9.358;2022-08-18T19:07:23;27.75;;;17.30;;
33786;SDS011;29742;51.540;9.358;2022-08-18T19:12:29;28.73;;;18.27;;
33786;SDS011;29742;51.540;9.358;2022-08-18T19:17:43;25.98;;;16.20;;
33786;SDS011;29742;51.540;9.358;2022-08-18T19:28:27;19.35;;;13.50;;
33786;SDS011;29742;51.540;9.358;2022-08-18T19:33:27;20.42;;;11.73;;
33786;SDS011;29742;51.540;9.358;2022-08-18T19:38:31;18.02;;;11.70;;
33786;SDS011;29742;51.540;9.358;2022-08-18T19:43:54;21.10;;;14.05;;
33786;SDS011;29742;51.540;9.358;2022-08-18T19:48:59;19.75;;;13.77;;
33786;SDS011;29742;51.540;9.358;2022-08-18T20:04:09;18.58;;;11.55;;
33786;SDS011;29742;51.540;9.358;2022-08-18T20:09:18;20.20;;;12.43;;
33786;SDS011;29742;51.540;9.358;2022-08-18T20:14:23;21.55;;;15.40;;
33786;SDS011;29742;51.540;9.358;2022-08-18T20:30:26;16.73;;;11.18;;
33786;SDS011;29742;51.540;9.358;2022-08-18T20:35:26;18.02;;;11.23;;
33786;SDS011;29742;51.540;9.358;2022-08-18T20:40:36;17.10;;;12.15;;
33786;SDS011;29742;51.540;9.358;2022-08-18T20:45:38;23.25;;;13.85;;
33786;SDS011;29742;51.540;9.358;2022-08-18T20:50:47;17.13;;;12.73;;
33786;SDS011;29742;51.540;9.358;2022-08-18T20:55:56;18.92;;;14.20;;
33786;SDS011;29742;51.540;9.358;2022-08-18T21:01:02;18.07;;;12.77;;
33786;SDS011;29742;51.540;9.358;2022-08-18T21:06:04;18.02;;;12.77;;
33786;SDS011;29742;51.540;9.358;2022-08-18T21:11:18;21.70;;;14.88;;
33786;SDS011;29742;51.540;9.358;2022-08-18T21:21:30;22.38;;;13.30;;
33786;SDS011;29742;51.540;9.358;2022-08-18T21:26:32;15.82;;;12.18;;
33786;SDS011;29742;51.540;9.358;2022-08-18T21:31:34;21.40;;;14.30;;
33786;SDS011;29742;51.540;9.358;2022-08-18T21:41:40;23.88;;;14.02;;
33786;SDS011;29742;51.540;9.358;2022-08-18T21:46:43;15.20;;;11.27;;
33786;SDS011;29742;51.540;9.358;2022-08-18T21:51:46;17.02;;;12.32;;
33786;SDS011;29742;51.540;9.358;2022-08-18T21:56:47;17.35;;;11.27;;
33786;SDS011;29742;51.540;9.358;2022-08-18T22:01:53;15.77;;;10.65;;
33786;SDS011;29742;51.540;9.358;2022-08-18T22:06:55;16.23;;;10.18;;
33786;SDS011;29742;51.540;9.358;2022-08-18T22:17:43;16.02;;;11.77;;
33786;SDS011;29742;51.540;9.358;2022-08-18T22:22:49;15.10;;;10.90;;
33786;SDS011;29742;51.540;9.358;2022-08-18T22:28:09;13.55;;;10.95;;
33786;SDS011;29742;51.540;9.358;2022-08-18T22:33:10;14.65;;;11.32;;
33786;SDS011;29742;51.540;9.358;2022-08-18T22:38:12;14.35;;;10.32;;
33786;SDS011;29742;51.540;9.358;2022-08-18T22:43:14;18.38;;;11.68;;
33786;SDS011;29742;51.540;9.358;2022-08-18T22:48:15;14.38;;;9.68;;
33786;SDS011;29742;51.540;9.358;2022-08-18T22:53:16;15.57;;;10.55;;
33786;SDS011;29742;51.540;9.358;2022-08-18T22:58:18;12.48;;;10.13;;
33786;SDS011;29742;51.540;9.358;2022-08-18T23:03:19;15.40;;;10.68;;
33786;SDS011;29742;51.540;9.358;2022-08-18T23:08:20;14.75;;;10.73;;
33786;SDS011;29742;51.540;9.358;2022-08-18T23:13:21;12.45;;;9.55;;
33786;SDS011;29742;51.540;9.358;2022-08-18T23:23:27;16.58;;;11.38;;
33786;SDS011;29742;51.540;9.358;2022-08-18T23:28:28;14.27;;;10.55;;
33786;SDS011;29742;51.540;9.358;2022-08-18T23:33:29;15.13;;;10.55;;
33786;SDS011;29742;51.540;9.358;2022-08-18T23:38:31;13.40;;;11.32;;
33786;SDS011;29742;51.540;9.358;2022-08-18T23:43:32;15.50;;;10.57;;
33786;SDS011;29742;51.540;9.358;2022-08-18T23:48:34;13.90;;;9.38;;
33786;SDS011;29742;51.540;9.358;2022-08-18T23:53:35;15.93;;;10.82;;
33786;SDS011;29742;51.540;9.358;2022-08-18T23:58:37;16.52;;;11.25;;
